createdAt,value
2023-03-15T00:01:46.707Z,5.59
2023-03-15T00:06:48.367Z,5.65
2023-03-15T00:11:51.278Z,5.69
2023-03-15T00:16:54.806Z,5.59
2023-03-15T00:21:56.399Z,5.59
2023-03-15T00:26:58.059Z,5.62
2023-03-15T00:32:00.518Z,5.70
2023-03-15T00:37:02.254Z,5.64
2023-03-15T00:42:04.018Z,5.50
2023-03-15T00:47:05.650Z,5.49
2023-03-15T00:52:07.923Z,5.56
2023-03-15T00:57:11.957Z,5.54
2023-03-15T01:02:13.881Z,5.61
2023-03-15T01:07:15.554Z,5.59
2023-03-15T01:12:18.937Z,5.61
2023-03-15T01:17:23.817Z,5.57
2023-03-15T01:22:26.484Z,5.53
2023-03-15T01:27:28.148Z,5.60
2023-03-15T01:32:30.113Z,5.61
2023-03-15T01:37:31.810Z,5.61
2023-03-15T01:42:33.825Z,5.65
2023-03-15T01:47:35.649Z,5.73
2023-03-15T01:52:41.407Z,5.70
2023-03-15T01:57:56.149Z,5.71
2023-03-15T02:03:05.408Z,5.67
2023-03-15T02:08:08.739Z,5.66
2023-03-15T02:13:17.726Z,5.62
2023-03-15T02:18:20.789Z,5.58
2023-03-15T02:23:22.929Z,5.57
2023-03-15T02:28:25.320Z,5.53
2023-03-15T02:33:36.669Z,5.56
2023-03-15T02:38:38.272Z,5.59
2023-03-15T02:43:42.044Z,5.55
2023-03-15T02:48:47.112Z,5.64
2023-03-15T02:53:48.984Z,5.53
2023-03-15T02:58:50.910Z,5.54
2023-03-15T03:03:52.888Z,5.57
2023-03-15T03:08:54.835Z,5.39
2023-03-15T03:13:57.440Z,5.44
2023-03-15T03:19:00.103Z,5.41
2023-03-15T03:24:04.442Z,5.46
2023-03-15T03:29:06.093Z,5.44
2023-03-15T03:34:09.661Z,5.37
2023-03-15T03:39:11.458Z,5.31
2023-03-15T03:44:13.167Z,5.39
2023-03-15T03:49:16.288Z,5.39
2023-03-15T03:54:21.375Z,5.32
2023-03-15T03:59:23.189Z,5.38
2023-03-15T04:04:31.489Z,5.27
2023-03-15T04:09:37.403Z,5.14
2023-03-15T04:14:39.986Z,5.12
2023-03-15T04:19:46.939Z,5.18
2023-03-15T04:24:50.762Z,5.22
2023-03-15T04:30:06.129Z,5.18
2023-03-15T04:35:17.309Z,5.15
2023-03-15T04:40:26.081Z,5.15
2023-03-15T04:45:41.883Z,5.25
2023-03-15T04:51:01.883Z,5.13
2023-03-15T04:56:18.208Z,5.12
2023-03-15T05:01:55.372Z,5.25
2023-03-15T05:07:09.725Z,5.11
2023-03-15T05:12:29.854Z,5.22
2023-03-15T05:17:38.372Z,5.11
2023-03-15T05:23:01.255Z,4.89
2023-03-15T05:28:28.923Z,4.70
2023-03-15T05:33:49.049Z,4.32
2023-03-15T05:38:56.830Z,4.37
2023-03-15T05:44:17.945Z,4.41
2023-03-15T05:49:37.871Z,4.32
2023-03-15T05:54:59.728Z,4.12
2023-03-15T06:00:39.929Z,4.20
2023-03-15T06:05:51.417Z,4.24
2023-03-15T06:11:01.345Z,4.28
2023-03-15T06:16:03.339Z,4.15
2023-03-15T06:21:06.440Z,4.15
2023-03-15T06:26:08.284Z,4.19
2023-03-15T06:31:11.897Z,4.24
2023-03-15T06:36:24.922Z,4.29
2023-03-15T06:41:26.945Z,4.27
2023-03-15T06:46:35.592Z,4.25
2023-03-15T06:51:38.347Z,4.21
2023-03-15T06:56:40.304Z,4.25
2023-03-15T07:01:42.203Z,4.25
2023-03-15T07:06:43.954Z,4.37
2023-03-15T07:11:45.607Z,4.36
2023-03-15T07:16:48.273Z,4.45
2023-03-15T07:21:49.941Z,4.57
2023-03-15T07:26:56.373Z,4.67
2023-03-15T07:31:58.201Z,4.83
2023-03-15T07:36:59.813Z,4.68
2023-03-15T07:42:01.578Z,4.90
2023-03-15T07:47:13.284Z,5.07
2023-03-15T07:52:15.014Z,5.05
2023-03-15T07:57:16.762Z,5.31
2023-03-15T08:02:18.471Z,5.52
2023-03-15T08:07:20.176Z,5.67
2023-03-15T08:12:22.886Z,5.92
2023-03-15T08:17:24.581Z,6.04
2023-03-15T08:22:26.227Z,6.25
2023-03-15T08:27:27.907Z,5.82
2023-03-15T08:32:29.534Z,6.20
2023-03-15T08:37:31.341Z,6.84
2023-03-15T08:42:32.920Z,7.22
2023-03-15T08:47:35.448Z,7.43
2023-03-15T08:52:37.193Z,7.48
2023-03-15T08:57:39.352Z,7.82
2023-03-15T09:02:40.997Z,7.71
2023-03-15T09:07:43.639Z,7.14
2023-03-15T09:12:48.368Z,7.00
2023-03-15T09:17:53.353Z,7.11
2023-03-15T09:22:57.756Z,7.79
2023-03-15T09:27:59.479Z,8.26
2023-03-15T09:33:01.212Z,8.84
2023-03-15T09:38:04.081Z,9.43
2023-03-15T09:43:14.014Z,9.55
2023-03-15T09:48:21.880Z,9.23
2023-03-15T09:53:32.157Z,9.27
2023-03-15T09:58:35.458Z,8.61
2023-03-15T10:03:47.331Z,8.91
2023-03-15T10:08:52.494Z,8.93
2023-03-15T10:14:03.417Z,9.17
2023-03-15T10:19:39.652Z,9.81
2023-03-15T10:24:56.914Z,9.47
2023-03-15T10:30:00.543Z,10.17
2023-03-15T10:35:02.157Z,9.73
2023-03-15T10:40:09.781Z,9.44
2023-03-15T10:45:22.100Z,10.01
2023-03-15T10:50:31.611Z,10.07
2023-03-15T10:55:37.127Z,9.70
2023-03-15T11:00:38.764Z,10.02
2023-03-15T11:05:43.564Z,10.59
2023-03-15T11:10:46.992Z,10.50
2023-03-15T11:16:04.008Z,10.53
2023-03-15T11:21:10.484Z,11.01
2023-03-15T11:26:31.483Z,11.12
2023-03-15T11:31:36.327Z,11.50
2023-03-15T11:36:41.906Z,11.80
2023-03-15T11:41:56.560Z,11.41
2023-03-15T11:47:03.826Z,11.49
2023-03-15T11:52:05.865Z,11.00
2023-03-15T11:57:36.417Z,10.85
2023-03-15T12:02:53.071Z,10.75
2023-03-15T12:08:18.532Z,10.66
2023-03-15T12:13:25.014Z,10.18
2023-03-15T12:18:31.205Z,9.88
2023-03-15T12:23:39.218Z,11.28
2023-03-15T12:29:13.400Z,11.45
2023-03-15T12:34:43.031Z,11.61
2023-03-15T12:39:46.108Z,11.94
2023-03-15T12:44:47.725Z,12.20
2023-03-15T12:49:49.316Z,12.13
2023-03-15T12:55:01.182Z,12.29
2023-03-15T13:00:12.864Z,12.04
2023-03-15T13:05:19.947Z,12.04
2023-03-15T13:10:34.868Z,12.23
2023-03-15T13:15:55.088Z,12.32
2023-03-15T13:21:13.428Z,12.29
2023-03-15T13:26:24.986Z,12.14
2023-03-15T13:31:31.247Z,11.94
2023-03-15T13:36:46.061Z,11.59
2023-03-15T13:41:50.712Z,11.65
2023-03-15T13:46:53.790Z,11.19
2023-03-15T13:51:55.576Z,10.93
2023-03-15T13:57:07.471Z,10.97
2023-03-15T14:02:17.792Z,10.95
2023-03-15T14:07:34.056Z,10.28
2023-03-15T14:12:35.766Z,10.27
2023-03-15T14:17:37.368Z,10.27
2023-03-15T14:22:42.038Z,10.56
2023-03-15T14:27:44.172Z,9.85
2023-03-15T14:32:55.339Z,9.88
2023-03-15T14:38:24.061Z,9.61
2023-03-15T14:43:25.723Z,9.40
2023-03-15T14:48:30.082Z,9.57
2023-03-15T14:53:37.029Z,9.19
2023-03-15T14:58:39.060Z,9.17
2023-03-15T15:03:48.252Z,9.10
2023-03-15T15:08:55.242Z,9.00
2023-03-15T15:13:58.575Z,9.21
2023-03-15T15:19:00.179Z,9.29
2023-03-15T15:24:04.179Z,9.24
2023-03-15T15:29:06.019Z,9.15
2023-03-15T15:34:08.353Z,8.95
2023-03-15T15:39:24.516Z,8.93
2023-03-15T15:44:26.112Z,8.70
2023-03-15T15:49:27.712Z,8.59
2023-03-15T15:54:35.597Z,8.63
2023-03-15T15:59:37.311Z,8.67
2023-03-15T16:04:41.744Z,8.40
2023-03-15T16:09:46.380Z,8.13
2023-03-15T16:14:48.171Z,8.19
2023-03-15T16:19:57.232Z,8.30
2023-03-15T16:25:01.465Z,8.11
2023-03-15T16:30:04.894Z,7.92
2023-03-15T16:35:07.761Z,7.99
2023-03-15T16:40:18.435Z,7.90
2023-03-15T16:45:20.457Z,7.86
2023-03-15T16:50:22.487Z,7.69
2023-03-15T16:55:26.817Z,7.69
2023-03-15T17:00:30.846Z,7.65
2023-03-15T17:05:32.970Z,7.51
2023-03-15T17:10:34.715Z,7.68
2023-03-15T17:15:36.397Z,7.57
2023-03-15T17:20:38.204Z,7.78
2023-03-15T17:25:40.280Z,7.97
2023-03-15T17:30:42.269Z,7.69
2023-03-15T17:35:47.288Z,7.75
2023-03-15T17:40:49.031Z,7.35
2023-03-15T17:45:52.345Z,7.38
2023-03-15T17:50:54.014Z,7.50
2023-03-15T17:55:55.604Z,7.47
2023-03-15T18:00:57.749Z,7.46
2023-03-15T18:06:01.452Z,7.20
2023-03-15T18:11:03.176Z,7.40
2023-03-15T18:16:05.087Z,7.43
2023-03-15T18:21:12.892Z,7.33
2023-03-15T18:26:14.439Z,7.38
2023-03-15T18:31:19.219Z,7.40
2023-03-15T18:36:21.155Z,7.51
2023-03-15T18:41:27.321Z,7.58
2023-03-15T18:46:29.341Z,7.56
2023-03-15T18:51:30.934Z,7.39
2023-03-15T18:56:34.571Z,7.32
2023-03-15T19:01:36.282Z,7.66
2023-03-15T19:06:37.994Z,7.10
2023-03-15T19:11:41.848Z,6.98
2023-03-15T19:16:43.533Z,7.07
2023-03-15T19:21:45.207Z,7.02
2023-03-15T19:26:46.985Z,7.14
2023-03-15T19:31:48.792Z,7.19
2023-03-15T19:36:52.017Z,7.04
2023-03-15T19:41:53.929Z,6.93
2023-03-15T19:46:55.669Z,6.89
2023-03-15T19:51:57.442Z,6.79
2023-03-15T19:56:59.793Z,6.96
2023-03-15T20:02:01.622Z,6.85
2023-03-15T20:07:03.887Z,6.86
2023-03-15T20:12:07.175Z,6.80
2023-03-15T20:17:09.066Z,6.83
2023-03-15T20:22:10.846Z,6.84
2023-03-15T20:27:13.489Z,6.88
2023-03-15T20:32:15.219Z,6.92
2023-03-15T20:37:17.171Z,6.76
2023-03-15T20:42:21.776Z,6.76
2023-03-15T20:47:23.512Z,6.70
2023-03-15T20:52:25.532Z,6.75
2023-03-15T20:57:27.402Z,6.61
2023-03-15T21:02:29.138Z,6.58
2023-03-15T21:07:30.790Z,6.51
2023-03-15T21:12:32.957Z,6.45
2023-03-15T21:17:34.777Z,6.46
2023-03-15T21:22:36.912Z,6.58
2023-03-15T21:27:38.518Z,6.57
2023-03-15T21:32:41.715Z,6.47
2023-03-15T21:37:43.708Z,6.33
2023-03-15T21:42:47.876Z,6.40
2023-03-15T21:47:49.755Z,6.40
2023-03-15T21:52:51.405Z,6.27
2023-03-15T21:57:53.104Z,6.28
2023-03-15T22:02:55.928Z,6.23
2023-03-15T22:07:57.658Z,6.29
2023-03-15T22:12:59.274Z,6.09
2023-03-15T22:18:02.402Z,6.10
2023-03-15T22:23:04.733Z,6.05
2023-03-15T22:28:07.278Z,6.00
2023-03-15T22:33:09.771Z,5.80
2023-03-15T22:38:12.620Z,5.94
2023-03-15T22:43:14.648Z,5.93
2023-03-15T22:48:16.409Z,5.94
2023-03-15T22:53:18.183Z,5.89
2023-03-15T22:58:20.675Z,5.94
2023-03-15T23:03:22.543Z,5.97
2023-03-15T23:08:24.684Z,5.85
2023-03-15T23:13:26.411Z,5.87
2023-03-15T23:18:28.085Z,5.85
2023-03-15T23:23:29.792Z,5.81
2023-03-15T23:28:32.106Z,5.85
2023-03-15T23:33:36.895Z,5.69
2023-03-15T23:38:39.058Z,5.63
2023-03-15T23:43:41.585Z,5.55
2023-03-15T23:48:43.314Z,5.62
2023-03-15T23:53:44.974Z,5.59
2023-03-15T23:58:46.624Z,5.60
